createdAt,value
2022-11-29T00:03:16.244Z,99.00
2022-11-29T00:18:19.523Z,98.53
2022-11-29T00:33:23.366Z,97.74
2022-11-29T00:48:33.318Z,97.69
2022-11-29T01:03:36.564Z,97.23
2022-11-29T01:18:39.769Z,96.58
2022-11-29T01:33:43.505Z,96.43
2022-11-29T01:48:47.938Z,96.48
2022-11-29T02:03:51.114Z,96.19
2022-11-29T02:19:09.612Z,95.75
2022-11-29T02:34:19.336Z,96.12
2022-11-29T02:49:32.063Z,96.07
2022-11-29T03:05:07.335Z,95.89
2022-11-29T03:20:29.749Z,95.70
2022-11-29T03:35:40.884Z,96.28
2022-11-29T03:50:55.903Z,96.61
2022-11-29T04:06:14.293Z,96.84
2022-11-29T04:21:30.228Z,96.92
2022-11-29T04:36:52.117Z,96.87
2022-11-29T04:52:08.533Z,97.45
2022-11-29T05:07:30.079Z,96.73
2022-11-29T05:22:46.669Z,96.29
2022-11-29T05:37:54.795Z,95.94
2022-11-29T05:53:21.170Z,95.93
2022-11-29T06:08:42.385Z,95.81
2022-11-29T06:23:55.694Z,95.52
2022-11-29T06:38:59.518Z,95.40
2022-11-29T06:54:21.620Z,95.42
2022-11-29T07:09:30.849Z,95.43
2022-11-29T07:24:42.181Z,95.31
2022-11-29T07:39:55.817Z,95.24
2022-11-29T07:54:59.402Z,95.34
2022-11-29T08:10:03.343Z,95.70
2022-11-29T08:25:08.049Z,95.29
2022-11-29T08:40:13.175Z,95.31
2022-11-29T08:55:18.133Z,96.78
2022-11-29T09:10:21.604Z,97.68
2022-11-29T09:25:25.379Z,97.86
2022-11-29T09:40:42.556Z,97.97
2022-11-29T09:56:09.023Z,97.65
2022-11-29T10:11:20.654Z,97.62
2022-11-29T10:26:28.189Z,96.43
2022-11-29T10:41:36.141Z,95.45
2022-11-29T10:56:41.622Z,94.99
2022-11-29T11:11:52.716Z,94.81
2022-11-29T11:26:57.607Z,94.70
2022-11-29T11:42:21.810Z,94.68
2022-11-29T11:57:27.299Z,94.24
2022-11-29T12:12:42.278Z,93.82
2022-11-29T12:27:46.410Z,93.92
2022-11-29T12:43:22.658Z,93.72
2022-11-29T12:58:46.046Z,94.00
2022-11-29T13:14:40.805Z,94.68
2022-11-29T13:29:35.082Z,95.06
2022-11-29T13:44:54.053Z,95.07
2022-11-29T13:59:57.401Z,94.87
2022-11-29T14:15:23.077Z,94.52
2022-11-29T14:30:39.819Z,95.08
2022-11-29T14:45:44.055Z,95.68
2022-11-29T15:00:49.039Z,95.46
2022-11-29T15:16:20.143Z,95.36
2022-11-29T15:31:24.386Z,95.12
2022-11-29T15:46:30.509Z,94.38
2022-11-29T16:01:34.991Z,94.51
2022-11-29T16:16:39.668Z,94.27
2022-11-29T16:31:43.505Z,94.35
2022-11-29T16:46:47.626Z,93.59
2022-11-29T17:01:52.468Z,93.15
2022-11-29T17:16:56.866Z,92.36
2022-11-29T17:32:00.544Z,92.15
2022-11-29T17:47:04.361Z,92.00
2022-11-29T18:02:08.233Z,91.47
2022-11-29T18:17:11.989Z,91.28
2022-11-29T18:32:15.546Z,91.10
2022-11-29T18:47:19.396Z,91.27
2022-11-29T19:02:23.185Z,91.54
2022-11-29T19:17:26.488Z,91.13
2022-11-29T19:32:29.664Z,90.96
2022-11-29T19:47:33.345Z,90.93
2022-11-29T20:02:36.863Z,90.76
2022-11-29T20:17:40.255Z,90.34
2022-11-29T20:32:44.463Z,90.32
2022-11-29T20:47:54.221Z,90.03
2022-11-29T21:02:57.767Z,90.02
2022-11-29T21:18:01.673Z,90.04
2022-11-29T21:33:06.234Z,90.28
2022-11-29T21:48:30.086Z,90.16
2022-11-29T22:03:33.443Z,90.16
2022-11-29T22:18:37.073Z,90.20
2022-11-29T22:33:40.674Z,90.44
2022-11-29T22:48:45.776Z,90.34
2022-11-29T23:03:54.818Z,90.48
2022-11-29T23:52:44.857Z,90.89
